Allenton, Wisconsin
Current Conditions -  °F | °C
As of 12:15 PM on Saturday 25 Oct 2014 (Local Time) from KETB Reporting Station
Clear Clear  
Wind Chill: 63°   Ceiling: Unl
Heat Index: 63°   Visibility: 10mi
Dew Point: 30°   Wind: 22mph
Humidity: 30%   Direction: 270°W
Pressure: 29.89"   Gusts: 25mph
Location:  43.42°N, 88.34°W
Report Text: KETB 251715Z AUTO 27019G22KT 10SM CLR 17/M01 A2989 RMK AO2
Loading
Personal Weather Stations






























Interactive Weather Map
Tropical Storm Tracking
New forecast layout! Learn more

10-Day Weather Forecast

Advertisements
Track Severe Weather on mobile